Map

Track Data

SID SEASON NUMBER BASIN SUBBASIN NAME ISO_TIME NATURE LAT LON WMO_WIND WMO_PRES WMO_AGENCY TRACK_TYPE DIST2LAND LANDFALL IFLAG USA_AGENCY USA_ATCF_ID USA_LAT USA_LON USA_RECORD USA_STATUS USA_WIND USA_PRES USA_SSHS USA_R34_NE USA_R34_SE USA_R34_SW USA_R34_NW USA_R50_NE USA_R50_SE USA_R50_SW USA_R50_NW USA_R64_NE USA_R64_SE USA_R64_SW USA_R64_NW USA_POCI USA_ROCI USA_RMW USA_EYE TOKYO_LAT TOKYO_LON TOKYO_GRADE TOKYO_WIND TOKYO_PRES TOKYO_R50_DIR TOKYO_R50_LONG TOKYO_R50_SHORT TOKYO_R30_DIR TOKYO_R30_LONG TOKYO_R30_SHORT TOKYO_LAND CMA_LAT CMA_LON CMA_CAT CMA_WIND CMA_PRES HKO_LAT HKO_LON HKO_CAT HKO_WIND HKO_PRES NEWDELHI_LAT NEWDELHI_LON NEWDELHI_GRADE NEWDELHI_WIND NEWDELHI_PRES NEWDELHI_CI NEWDELHI_DP NEWDELHI_POCI REUNION_LAT REUNION_LON REUNION_TYPE REUNION_WIND REUNION_PRES REUNION_TNUM REUNION_CI REUNION_RMW REUNION_R34_NE REUNION_R34_SE REUNION_R34_SW REUNION_R34_NW REUNION_R50_NE REUNION_R50_SE REUNION_R50_SW REUNION_R50_NW REUNION_R64_NE REUNION_R64_SE REUNION_R64_SW REUNION_R64_NW BOM_LAT BOM_LON BOM_TYPE BOM_WIND BOM_PRES BOM_TNUM BOM_CI BOM_RMW BOM_R34_NE BOM_R34_SE BOM_R34_SW BOM_R34_NW BOM_R50_NE BOM_R50_SE BOM_R50_SW BOM_R50_NW BOM_R64_NE BOM_R64_SE BOM_R64_SW BOM_R64_NW BOM_ROCI BOM_POCI BOM_EYE BOM_POS_METHOD BOM_PRES_METHOD NADI_LAT NADI_LON NADI_CAT NADI_WIND NADI_PRES WELLINGTON_LAT WELLINGTON_LON WELLINGTON_WIND WELLINGTON_PRES DS824_LAT DS824_LON DS824_STAGE DS824_WIND DS824_PRES TD9636_LAT TD9636_LON TD9636_STAGE TD9636_WIND TD9636_PRES TD9635_LAT TD9635_LON TD9635_WIND TD9635_PRES TD9635_ROCI NEUMANN_LAT NEUMANN_LON NEUMANN_CLASS NEUMANN_WIND NEUMANN_PRES MLC_LAT MLC_LON MLC_CLASS MLC_WIND MLC_PRES USA_GUST BOM_GUST BOM_GUST_PER REUNION_GUST REUNION_GUST_PER USA_SEAHGT USA_SEARAD_NE USA_SEARAD_SE USA_SEARAD_SW USA_SEARAD_NW STORM_SPEED STORM_DIR
1949264N26268 1949 83 NA GM NOT_NAMED 1949-09-20 12:00:00 TS 26.0000 -91.8000 35 hurdat_atl main 357 341 O_____________ hurdat_atl AL091949 26.0000 -91.8000 TS 35 0 6 314
1949264N26268 1949 83 NA GM NOT_NAMED 1949-09-20 15:00:00 TS 26.2151 -92.0498 main 341 327 P_____________ AL091949 26.2151 -92.0498 TS 35 0 6 312
1949264N26268 1949 83 NA GM NOT_NAMED 1949-09-20 18:00:00 TS 26.4000 -92.3000 35 hurdat_atl main 331 325 O_____________ hurdat_atl AL091949 26.4000 -92.3000 TS 35 0 5 305
1949264N26268 1949 83 NA GM NOT_NAMED 1949-09-20 21:00:00 TS 26.5300 -92.5500 main 334 325 P_____________ AL091949 26.5300 -92.5500 TS 37 0 5 294
1949264N26268 1949 83 NA GM NOT_NAMED 1949-09-21 00:00:00 TS 26.6000 -92.8000 40 hurdat_atl main 327 327 O_____________ hurdat_atl AL091949 26.6000 -92.8000 TS 40 0 5 280
1949264N26268 1949 83 NA GM NOT_NAMED 1949-09-21 03:00:00 TS 26.6150 -93.0726 main 333 326 P_____________ AL091949 26.6150 -93.0726 TS 40 0 4 270
1949264N26268 1949 83 NA GM NOT_NAMED 1949-09-21 06:00:00 TS 26.6000 -93.3000 40 hurdat_atl main 326 321 O_____________ hurdat_atl AL091949 26.6000 -93.3000 TS 40 0 3 267
1949264N26268 1949 83 NA GM NOT_NAMED 1949-09-21 09:00:00 TS 26.5999 -93.4000 main 321 315 P_____________ AL091949 26.5999 -93.4000 TS 42 0 2 270
1949264N26268 1949 83 NA GM NOT_NAMED 1949-09-21 12:00:00 TS 26.6000 -93.5000 45 hurdat_atl main 315 305 O_____________ hurdat_atl AL091949 26.6000 -93.5000 TS 45 0 3 276
1949264N26268 1949 83 NA GM NOT_NAMED 1949-09-21 15:00:00 TS 26.6301 -93.7348 main 305 291 P_____________ AL091949 26.6301 -93.7348 TS 47 0 4 270
1949264N26268 1949 83 NA GM NOT_NAMED 1949-09-21 18:00:00 TS 26.6000 -94.0000 50 hurdat_atl main 291 286 O_____________ hurdat_atl AL091949 26.6000 -94.0000 TS 50 0 5 246
1949264N26268 1949 83 NA GM NOT_NAMED 1949-09-21 21:00:00 TS 26.4300 -94.2302 main 292 270 P_____________ AL091949 26.4300 -94.2302 TS 50 0 5 222
1949264N26268 1949 83 NA GM NOT_NAMED 1949-09-22 00:00:00 TS 26.2000 -94.4000 50 hurdat_atl main 270 259 O_____________ hurdat_atl AL091949 26.2000 -94.4000 TS 50 0 5 207
1949264N26268 1949 83 NA GM NOT_NAMED 1949-09-22 03:00:00 TS 25.9850 -94.4799 main 259 259 P_____________ AL091949 25.9850 -94.4799 TS 50 0 4 192
1949264N26268 1949 83 NA GM NOT_NAMED 1949-09-22 06:00:00 TS 25.8000 -94.5000 50 hurdat_atl main 260 260 O_____________ hurdat_atl AL091949 25.8000 -94.5000 TS 50 0 3 186
1949264N26268 1949 83 NA GM NOT_NAMED 1949-09-22 09:00:00 TS 25.6775 -94.5225 main 262 262 P_____________ AL091949 25.6775 -94.5225 TS 50 0 2 172
1949264N26268 1949 83 NA GM NOT_NAMED 1949-09-22 12:00:00 TS 25.6000 -94.5000 50 hurdat_atl main 263 263 O_____________ hurdat_atl AL091949 25.6000 -94.5000 TS 50 0 2 146
1949264N26268 1949 83 NA GM NOT_NAMED 1949-09-22 15:00:00 TS 25.5500 -94.4225 main 273 275 P_____________ AL091949 25.5500 -94.4225 TS 50 0 2 119
1949264N26268 1949 83 NA GM NOT_NAMED 1949-09-22 18:00:00 TS 25.5000 -94.3000 50 hurdat_atl main 285 285 O_____________ hurdat_atl AL091949 25.5000 -94.3000 TS 50 0 3 114
1949264N26268 1949 83 NA GM NOT_NAMED 1949-09-22 21:00:00 TS 25.4301 -94.1274 main 307 307 P_____________ AL091949 25.4301 -94.1274 TS 50 0 3 126
1949264N26268 1949 83 NA GM NOT_NAMED 1949-09-23 00:00:00 TS 25.3000 -94.0000 50 hurdat_atl main 320 320 O_____________ hurdat_atl AL091949 25.3000 -94.0000 TS 50 0 4 164
1949264N26268 1949 83 NA GM NOT_NAMED 1949-09-23 03:00:00 TS 25.0950 -94.0201 main 326 318 P_____________ AL091949 25.0950 -94.0201 TS 50 0 5 190
1949264N26268 1949 83 NA GM NOT_NAMED 1949-09-23 06:00:00 TS 24.8000 -94.1000 50 hurdat_atl main 324 324 O_____________ hurdat_atl AL091949 24.8000 -94.1000 TS 50 0 7 189
1949264N26268 1949 83 NA GM NOT_NAMED 1949-09-23 09:00:00 TS 24.4524 -94.1272 main 335 335 P_____________ AL091949 24.4524 -94.1272 TS 50 0 8 186
1949264N26268 1949 83 NA GM NOT_NAMED 1949-09-23 12:00:00 TS 24.0000 -94.2000 50 hurdat_atl main 349 346 O_____________ hurdat_atl AL091949 24.0000 -94.2000 TS 50 0 11 191
1949264N26268 1949 83 NA GM NOT_NAMED 1949-09-23 15:00:00 TS 23.3850 -94.3628 main 346 308 P_____________ AL091949 23.3850 -94.3628 TS 52 0 13 197
1949264N26268 1949 83 NA GM NOT_NAMED 1949-09-23 18:00:00 TS 22.8000 -94.6000 55 hurdat_atl main 308 263 O_____________ hurdat_atl AL091949 22.8000 -94.6000 TS 55 0 11 207
1949264N26268 1949 83 NA GM NOT_NAMED 1949-09-23 21:00:00 TS 22.4251 -94.8925 main 263 226 P_____________ AL091949 22.4251 -94.8925 TS 57 0 8 223
1949264N26268 1949 83 NA GM NOT_NAMED 1949-09-24 00:00:00 TS 22.2000 -95.2000 60 hurdat_atl main 226 193 O_____________ hurdat_atl AL091949 22.2000 -95.2000 TS 60 0 6 236
1949264N26268 1949 83 NA GM NOT_NAMED 1949-09-24 03:00:00 TS 22.0625 -95.4648 main 193 171 P_____________ AL091949 22.0625 -95.4648 TS 62 0 5 247
1949264N26268 1949 83 NA GM NOT_NAMED 1949-09-24 06:00:00 TS 22.0000 -95.7000 65 hurdat_atl main 171 148 O_____________ hurdat_atl AL091949 22.0000 -95.7000 HU 65 1 4 253
1949264N26268 1949 83 NA GM NOT_NAMED 1949-09-24 09:00:00 TS 21.9349 -95.9075 main 148 128 P_____________ AL091949 21.9349 -95.9075 HU 67 1 4 255
1949264N26268 1949 83 NA GM NOT_NAMED 1949-09-24 12:00:00 TS 21.9000 -96.1000 70 hurdat_atl main 128 108 O_____________ hurdat_atl AL091949 21.9000 -96.1000 HU 70 1 4 267
1949264N26268 1949 83 NA GM NOT_NAMED 1949-09-24 15:00:00 TS 21.9150 -96.3149 main 108 89 P_____________ AL091949 21.9150 -96.3149 HU 72 1 4 270
1949264N26268 1949 83 NA GM NOT_NAMED 1949-09-24 18:00:00 TS 21.9000 -96.5000 75 hurdat_atl main 89 75 O_____________ hurdat_atl AL091949 21.9000 -96.5000 HU 75 1 3 245
1949264N26268 1949 83 NA GM NOT_NAMED 1949-09-24 21:00:00 TS 21.7800 -96.6225 main 75 62 P_____________ AL091949 21.7800 -96.6225 HU 77 1 4 211
1949264N26268 1949 83 NA GM NOT_NAMED 1949-09-25 00:00:00 TS 21.6000 -96.7000 80 hurdat_atl main 62 52 O_____________ hurdat_atl AL091949 21.6000 -96.7000 HU 80 1 4 201
1949264N26268 1949 83 NA GM NOT_NAMED 1949-09-25 03:00:00 TS 21.4000 -96.7801 main 56 56 P_____________ AL091949 21.4000 -96.7801 HU 80 1 4 193
1949264N26268 1949 83 NA GM NOT_NAMED 1949-09-25 06:00:00 TS 21.2000 -96.8000 80 hurdat_atl main 61 56 O_____________ hurdat_atl AL091949 21.2000 -96.8000 HU 80 1 4 170
1949264N26268 1949 83 NA GM NOT_NAMED 1949-09-25 09:00:00 TS 21.0425 -96.7225 main 61 61 P_____________ AL091949 21.0425 -96.7225 HU 80 1 4 149
1949264N26268 1949 83 NA GM NOT_NAMED 1949-09-25 12:00:00 TS 20.9000 -96.6000 80 hurdat_atl main 61 53 O_____________ hurdat_atl AL091949 20.9000 -96.6000 HU 80 1 4 144
1949264N26268 1949 83 NA GM NOT_NAMED 1949-09-25 15:00:00 TS 20.7500 -96.5000 main 53 53 P_____________ AL091949 20.7500 -96.5000 HU 77 1 4 149
1949264N26268 1949 83 NA GM NOT_NAMED 1949-09-25 18:00:00 TS 20.6000 -96.4000 75 hurdat_atl main 53 53 O_____________ hurdat_atl AL091949 20.6000 -96.4000 HU 75 1 3 143
1949264N26268 1949 83 NA GM NOT_NAMED 1949-09-25 21:00:00 TS 20.4725 -96.2775 main 53 45 P_____________ AL091949 20.4725 -96.2775 HU 70 1 4 149
1949264N26268 1949 83 NA GM NOT_NAMED 1949-09-26 00:00:00 TS 20.3000 -96.2000 65 hurdat_atl main 45 23 O_____________ hurdat_atl AL091949 20.3000 -96.2000 HU 65 1 5 175
1949264N26268 1949 83 NA GM NOT_NAMED 1949-09-26 03:00:00 TS 20.0194 -96.2424 main 23 10 P_____________ AL091949 20.0194 -96.2424 HU 60 0 6 189
1949264N26268 1949 83 NA GM NOT_NAMED 1949-09-26 06:00:00 TS 19.7000 -96.3000 55 hurdat_atl main 10 10 O_____________ hurdat_atl AL091949 19.7000 -96.3000 TS 55 0 6 186
1949264N26268 1949 83 NA GM NOT_NAMED 1949-09-26 08:00:00 TS 19.5000 -96.3000 55 hurdat_atl main 10 10 O_____________ hurdat_atl AL091949 19.5000 -96.3000 L TS 55 0 6 0
1949264N26268 1949 83 NA GM NOT_NAMED 1949-09-26 09:00:00 TS 19.3877 -96.2964 main 10 0 P_____________ AL091949 19.3877 -96.2964 TS 50 0 8 178
1949264N26268 1949 83 NA NA NOT_NAMED 1949-09-26 12:00:00 TS 19.0000 -96.3000 35 hurdat_atl main 0 0 O_____________ hurdat_atl AL091949 19.0000 -96.3000 TS 35 0 8 185
1949264N26268 1949 83 NA NA NOT_NAMED 1949-09-26 15:00:00 TS 18.5621 -96.3761 main 0 0 P_____________ AL091949 18.5621 -96.3761 TS 27 -1 9 192
1949264N26268 1949 83 NA NA NOT_NAMED 1949-09-26 18:00:00 TS 18.1000 -96.5000 20 hurdat_atl main 0 O_____________ hurdat_atl AL091949 18.1000 -96.5000 TD 20 -1 10 194

About IBTrACS Database

This database is a web-friendly format of International Best Track Archive for Climate Stewardship (IBTrACS), a global best track data archive curated by NOAA dating back to 1842.

Updated: 2021-12-03